Time;durP1;ratioP1;P1;durP2;ratioP2;P2;SDS_P1;SDS_P2;PMS_P1;PMS_P2;Temp;Humidity;BMP_temperature;BMP_pressure;BME280_temperature;BME280_humidity;BME280_pressure;Samples;Min_cycle;Max_cycle;Signal;HPM_P1;HPM_P2
2021/12/14 00:00:26;;;;;;;24.00;15.40;;;;;;;6.37;64.86;101059.64;117404;1182;21852;-57
2021/12/14 00:02:54;;;;;;;23.60;14.40;;;;;;;6.39;64.56;101067.16;117401;1182;23464;-57
2021/12/14 00:05:24;;;;;;;24.50;15.20;;;;;;;6.42;64.67;101071.19;117303;1188;21855;-57
2021/12/14 00:07:55;;;;;;;22.40;14.30;;;;;;;6.44;64.62;101077.69;117339;1186;21856;-57
2021/12/14 00:16:07;;;;;;;20.60;13.60;;;;;;;6.49;64.70;101080.56;117213;1186;23583;-60
2021/12/14 00:18:36;;;;;;;23.30;14.20;;;;;;;6.52;64.50;101080.79;117234;1185;23542;-57
2021/12/14 00:21:19;;;;;;;25.20;15.80;;;;;;;6.53;64.57;101081.48;117336;1185;23473;-57
2021/12/14 00:24:07;;;;;;;19.90;13.40;;;;;;;6.55;64.92;101081.35;117359;1185;21830;-62
2021/12/14 00:26:41;;;;;;;19.30;13.90;;;;;;;6.56;64.56;101087.98;117298;1185;21858;-61
2021/12/14 00:29:12;;;;;;;23.00;15.20;;;;;;;6.56;64.59;101091.13;117378;1185;21857;-58
2021/12/14 00:31:43;;;;;;;21.60;14.70;;;;;;;6.57;64.71;101091.33;117154;1187;21864;-60
2021/12/14 00:34:20;;;;;;;22.10;16.20;;;;;;;6.57;64.92;101087.30;117250;1187;21854;-61
2021/12/14 00:36:50;;;;;;;24.70;15.80;;;;;;;6.56;64.51;101087.13;117117;1182;21858;-58
2021/12/14 00:39:18;;;;;;;22.70;16.10;;;;;;;6.55;64.62;101083.63;117213;1188;21968;-58
2021/12/14 00:41:47;;;;;;;26.00;17.00;;;;;;;6.56;64.81;101079.44;117412;1185;21881;-58
2021/12/14 00:44:15;;;;;;;24.10;15.30;;;;;;;6.58;64.80;101074.58;117357;1185;23457;-58
2021/12/14 00:46:43;;;;;;;22.40;15.00;;;;;;;6.58;64.79;101073.55;117326;1185;21862;-56
2021/12/14 00:49:12;;;;;;;21.60;15.20;;;;;;;6.57;64.73;101074.41;117376;1183;21898;-59
2021/12/14 00:51:41;;;;;;;25.20;16.30;;;;;;;6.57;64.76;101070.39;117371;1184;21858;-56
2021/12/14 00:54:12;;;;;;;25.80;16.50;;;;;;;6.58;64.59;101069.38;117334;1185;22455;-59
2021/12/14 00:56:45;;;;;;;24.60;16.40;;;;;;;6.56;64.47;101071.26;117382;1182;21854;-60
2021/12/14 00:59:14;;;;;;;23.60;16.30;;;;;;;6.55;64.37;101071.24;117384;1184;21863;-60
2021/12/14 01:01:48;;;;;;;23.90;16.40;;;;;;;6.53;64.54;101070.51;117416;1184;23612;-60
2021/12/14 01:04:45;;;;;;;29.00;17.30;;;;;;;6.49;64.57;101068.70;117307;1184;21864;-57
2021/12/14 01:07:15;;;;;;;26.00;16.30;;;;;;;6.45;64.37;101065.84;117060;1185;21859;-60
2021/12/14 01:09:45;;;;;;;22.10;15.80;;;;;;;6.38;64.39;101056.69;117056;1186;22796;-57
2021/12/14 01:12:23;;;;;;;28.60;16.30;;;;;;;6.37;64.39;101053.52;116999;1186;21862;-60
2021/12/14 01:15:11;;;;;;;24.20;16.60;;;;;;;6.36;64.48;101048.11;117143;1184;23472;-61
2021/12/14 01:18:01;;;;;;;24.80;17.20;;;;;;;6.36;64.58;101049.15;117075;1182;21864;-58
2021/12/14 01:20:36;;;;;;;24.50;16.50;;;;;;;6.37;64.43;101046.21;117347;1188;21894;-57
2021/12/14 01:23:14;;;;;;;25.60;15.50;;;;;;;6.36;64.47;101051.23;117346;1186;21859;-58
2021/12/14 01:25:45;;;;;;;23.50;16.10;;;;;;;6.35;64.51;101053.49;117362;1185;21841;-60
2021/12/14 01:28:17;;;;;;;26.10;16.70;;;;;;;6.32;64.40;101061.10;117326;1188;21994;-57
2021/12/14 01:31:22;;;;;;;23.20;16.10;;;;;;;6.34;64.41;101067.08;117366;1185;22166;-57
2021/12/14 01:33:54;;;;;;;22.70;15.40;;;;;;;6.37;64.48;101067.99;117361;1185;21855;-60
2021/12/14 01:37:07;;;;;;;23.10;15.90;;;;;;;6.44;64.64;101066.87;117332;1185;24271;-57
2021/12/14 01:42:13;;;;;;;27.70;16.20;;;;;;;6.49;64.28;101064.16;117323;1184;21876;-57
2021/12/14 01:44:45;;;;;;;22.80;15.40;;;;;;;6.52;64.15;101065.44;117343;1184;23483;-57
2021/12/14 01:47:39;;;;;;;22.30;15.10;;;;;;;6.49;64.46;101068.35;117241;1186;22914;-63
2021/12/14 01:50:15;;;;;;;24.70;15.70;;;;;;;6.56;64.44;101069.35;117318;1185;22649;-61
2021/12/14 01:52:43;;;;;;;23.50;16.20;;;;;;;6.62;64.31;101070.63;117384;1185;21941;-61
2021/12/14 01:55:15;;;;;;;28.20;16.30;;;;;;;6.67;64.13;101076.81;117362;1186;21858;-61
2021/12/14 01:57:43;;;;;;;21.60;14.80;;;;;;;6.69;64.36;101081.02;117367;1185;21912;-58
2021/12/14 02:00:37;;;;;;;22.90;15.80;;;;;;;6.70;64.11;101082.96;117379;1185;21864;-58
2021/12/14 02:03:06;;;;;;;22.60;15.50;;;;;;;6.74;64.20;101082.67;117324;1184;23534;-58
2021/12/14 02:05:39;;;;;;;21.90;15.30;;;;;;;6.74;64.30;101087.38;117367;1185;22922;-61
2021/12/14 02:08:35;;;;;;;30.30;16.20;;;;;;;6.75;64.16;101092.29;117325;1182;21888;-60
2021/12/14 02:11:05;;;;;;;24.30;16.30;;;;;;;6.69;64.22;101093.94;117372;1185;22939;-61
2021/12/14 02:13:35;;;;;;;;;;;;;;;6.68;64.47;101097.59;117340;1184;21845;-57
2021/12/14 02:16:04;;;;;;;25.30;14.60;;;;;;;6.71;64.38;101100.08;117375;1185;22928;-58
2021/12/14 02:19:26;;;;;;;27.30;17.30;;;;;;;6.75;64.60;101103.29;117312;1182;23630;-60
2021/12/14 02:21:54;;;;;;;25.50;16.80;;;;;;;6.87;64.06;101101.88;116990;1188;21879;-60
2021/12/14 02:24:23;;;;;;;28.70;16.10;;;;;;;6.91;64.22;101104.20;117078;1188;23504;-57
2021/12/14 02:26:51;;;;;;;26.80;16.70;;;;;;;6.94;64.18;101111.40;117016;1188;21852;-58
2021/12/14 02:29:32;;;;;;;26.10;16.10;;;;;;;6.97;64.27;101118.42;117053;1188;21858;-60
2021/12/14 02:32:12;;;;;;;25.90;16.40;;;;;;;6.99;64.33;101123.52;117065;1188;21862;-60
2021/12/14 02:34:43;;;;;;;25.30;15.90;;;;;;;7.01;64.29;101121.97;117042;1189;22955;-60
2021/12/14 02:37:13;;;;;;;25.40;16.10;;;;;;;6.94;64.31;101125.01;117052;1185;21858;-57
2021/12/14 02:42:15;;;;;;;22.50;15.10;;;;;;;7.02;64.23;101123.20;117092;1188;21850;-60
2021/12/14 02:44:46;;;;;;;24.30;15.20;;;;;;;7.04;64.20;101119.92;117065;1188;21873;-57
2021/12/14 02:47:16;;;;;;;24.00;15.40;;;;;;;7.01;64.10;101122.15;117063;1185;23542;-57
2021/12/14 02:49:44;;;;;;;23.60;15.20;;;;;;;7.00;64.22;101126.48;117061;1185;23564;-60
2021/12/14 02:52:14;;;;;;;23.10;14.60;;;;;;;6.94;64.14;101134.09;117062;1185;21867;-61
2021/12/14 02:54:48;;;;;;;22.60;14.80;;;;;;;6.94;64.30;101129.02;117093;1185;21856;-60
2021/12/14 02:57:22;;;;;;;21.90;14.50;;;;;;;6.92;64.04;101131.42;117121;1188;21848;-61
2021/12/14 02:59:50;;;;;;;21.70;14.50;;;;;;;6.94;64.31;101130.94;117360;1188;21858;-60
2021/12/14 03:02:21;;;;;;;23.80;15.30;;;;;;;6.96;64.48;101130.98;117369;1185;23631;-61
2021/12/14 03:04:52;;;;;;;22.40;15.20;;;;;;;6.98;64.26;101135.02;117297;1186;21858;-60
2021/12/14 03:07:24;;;;;;;;;;;;;;;6.97;64.36;101136.92;117296;1185;21846;-56
2021/12/14 03:10:01;;;;;;;25.50;16.20;;;;;;;7.01;64.10;101135.41;117403;1185;21856;-59
2021/12/14 03:12:39;;;;;;;23.10;14.90;;;;;;;7.03;64.31;101138.93;117344;1185;23436;-59
2021/12/14 03:15:08;;;;;;;26.30;15.90;;;;;;;7.04;64.15;101136.48;117387;1185;21853;-56
2021/12/14 03:17:36;;;;;;;22.30;14.40;;;;;;;7.06;64.33;101134.26;117420;1185;23439;-60
2021/12/14 03:20:17;;;;;;;21.20;13.90;;;;;;;7.11;64.20;101135.02;117359;1186;21858;-60
2021/12/14 03:22:47;;;;;;;22.10;14.70;;;;;;;7.11;64.02;101131.19;117359;1185;23481;-58
2021/12/14 03:25:18;;;;;;;25.80;15.60;;;;;;;7.10;64.18;101127.67;117356;1186;22967;-60
2021/12/14 03:27:47;;;;;;;25.30;15.20;;;;;;;7.08;64.22;101125.38;117317;1184;21862;-62
2021/12/14 03:30:26;;;;;;;25.90;14.70;;;;;;;7.05;63.96;101127.80;117284;1186;21852;-59
2021/12/14 03:32:58;;;;;;;23.10;14.90;;;;;;;7.05;63.98;101126.92;117320;1186;21848;-57
2021/12/14 03:35:48;;;;;;;20.20;14.70;;;;;;;7.05;63.96;101127.44;117372;1183;23062;-60
2021/12/14 03:38:19;;;;;;;;;;;;;;;7.05;63.95;101130.42;117402;1184;24216;-57
2021/12/14 03:41:00;;;;;;;23.20;14.70;;;;;;;7.04;64.12;101134.77;117356;1182;21848;-60
2021/12/14 03:43:29;;;;;;;26.30;15.60;;;;;;;7.04;64.05;101135.45;117344;1185;21858;-60
2021/12/14 03:45:57;;;;;;;24.90;15.30;;;;;;;7.02;64.05;101133.51;117396;1182;21857;-60
2021/12/14 03:48:27;;;;;;;25.70;17.20;;;;;;;7.00;64.11;101136.61;117350;1182;21867;-57
2021/12/14 03:50:55;;;;;;;24.50;15.20;;;;;;;6.99;63.95;101134.84;117361;1185;24314;-59
2021/12/14 03:53:24;;;;;;;27.70;16.20;;;;;;;7.00;64.31;101132.96;117338;1185;21858;-61
2021/12/14 03:56:04;;;;;;;24.90;16.00;;;;;;;7.01;63.88;101127.55;117426;1185;23460;-57
2021/12/14 03:58:35;;;;;;;25.70;15.80;;;;;;;7.01;64.03;101127.73;117383;1183;21861;-60
2021/12/14 04:01:19;;;;;;;27.50;17.30;;;;;;;6.96;63.98;101129.41;117386;1185;21852;-60
2021/12/14 04:03:49;;;;;;;28.60;16.30;;;;;;;6.92;64.23;101133.52;117375;1186;22909;-57
2021/12/14 04:06:18;;;;;;;24.30;15.80;;;;;;;6.89;64.23;101133.30;117360;1185;22913;-61
2021/12/14 04:08:46;;;;;;;25.40;15.50;;;;;;;6.90;64.24;101134.71;117385;1185;23646;-59
2021/12/14 04:11:15;;;;;;;24.10;15.90;;;;;;;6.94;64.02;101136.00;117409;1185;22626;-60
2021/12/14 04:13:48;;;;;;;25.20;15.60;;;;;;;6.98;64.18;101129.60;117378;1182;21851;-57
2021/12/14 04:16:18;;;;;;;;;;;;;;;6.90;64.13;101130.88;117347;1185;22922;-62
2021/12/14 04:18:47;;;;;;;26.60;18.60;;;;;;;6.94;63.97;101125.70;117283;1186;22886;-58
2021/12/14 04:21:16;;;;;;;25.00;17.20;;;;;;;6.93;63.99;101125.34;117342;1186;21864;-61
2021/12/14 04:23:49;;;;;;;25.00;15.60;;;;;;;6.92;64.13;101122.35;117312;1184;21895;-58
2021/12/14 04:26:18;;;;;;;25.60;17.10;;;;;;;6.90;64.01;101127.04;117331;1186;23635;-60
2021/12/14 04:28:55;;;;;;;25.60;16.20;;;;;;;6.89;63.96;101129.98;117354;1186;21861;-57
2021/12/14 04:31:23;;;;;;;25.70;15.80;;;;;;;6.89;63.95;101132.77;117324;1185;21849;-60
2021/12/14 04:33:52;;;;;;;29.50;15.80;;;;;;;6.91;64.02;101137.52;117407;1185;23135;-61
2021/12/14 04:36:25;;;;;;;24.20;15.70;;;;;;;6.92;64.21;101139.47;117361;1186;21875;-61
2021/12/14 04:39:00;;;;;;;22.60;16.00;;;;;;;7.00;63.98;101143.42;117322;1189;21899;-58
2021/12/14 04:52:51;;;;;;;31.00;16.10;;;;;;;7.02;64.01;101142.76;117312;1186;21958;-57
2021/12/14 04:55:19;;;;;;;24.80;15.30;;;;;;;7.03;63.73;101142.06;117363;1184;23540;-59
2021/12/14 04:57:48;;;;;;;24.20;15.30;;;;;;;7.04;63.92;101137.73;117291;1186;24126;-59
2021/12/14 05:00:40;;;;;;;29.10;16.60;;;;;;;7.04;63.95;101139.64;117376;1181;21855;-60
2021/12/14 05:03:35;;;;;;;26.10;15.60;;;;;;;7.02;63.86;101142.41;117298;1188;22911;-60
2021/12/14 05:06:15;;;;;;;31.80;15.70;;;;;;;6.97;63.59;101136.23;117337;1186;21855;-60
2021/12/14 05:11:16;;;;;;;29.10;17.00;;;;;;;6.94;63.95;101145.79;117351;1186;23436;-62
2021/12/14 05:13:50;;;;;;;25.90;14.90;;;;;;;6.98;63.97;101148.80;117193;1186;24152;-63
2021/12/14 05:16:22;;;;;;;27.90;16.70;;;;;;;7.01;64.26;101148.31;117319;1186;23412;-56
2021/12/14 05:18:53;;;;;;;25.20;15.00;;;;;;;6.99;64.06;101150.39;117342;1186;21869;-56
2021/12/14 05:21:30;;;;;;;25.70;14.50;;;;;;;6.98;64.24;101149.33;117310;1184;21881;-56
2021/12/14 05:23:58;;;;;;;27.40;15.90;;;;;;;6.97;63.93;101148.27;117339;1185;23463;-61
2021/12/14 05:26:27;;;;;;;24.40;15.90;;;;;;;6.95;64.09;101149.28;117341;1183;21857;-64
2021/12/14 05:28:56;;;;;;;30.90;16.40;;;;;;;6.91;64.02;101148.89;117316;1184;21931;-63
2021/12/14 05:31:25;;;;;;;21.90;14.80;;;;;;;6.91;64.12;101154.44;117464;1180;21857;-60
2021/12/14 05:33:54;;;;;;;23.80;14.20;;;;;;;6.91;64.18;101159.52;117435;1182;22701;-59
2021/12/14 05:36:22;;;;;;;23.50;14.80;;;;;;;6.93;63.97;101160.59;117318;1184;22813;-63
2021/12/14 05:39:04;;;;;;;26.50;15.50;;;;;;;6.94;64.13;101160.79;117344;1184;23520;-59
2021/12/14 05:44:24;;;;;;;24.10;14.80;;;;;;;6.93;64.04;101174.20;117311;1184;23836;-57
2021/12/14 05:46:59;;;;;;;22.40;14.30;;;;;;;6.94;64.11;101177.17;117287;1185;21856;-57
2021/12/14 05:49:28;;;;;;;26.60;15.00;;;;;;;6.96;63.94;101179.14;117336;1183;22731;-57
2021/12/14 05:51:58;;;;;;;27.90;14.50;;;;;;;6.95;63.96;101182.25;117336;1185;22986;-57
2021/12/14 05:54:29;;;;;;;28.60;15.20;;;;;;;6.93;64.13;101185.54;117322;1184;21926;-62
2021/12/14 05:56:59;;;;;;;23.50;15.00;;;;;;;6.92;64.14;101187.44;117314;1185;22894;-57
2021/12/14 05:59:29;;;;;;;21.50;13.80;;;;;;;6.91;64.14;101190.40;117345;1184;21863;-61
2021/12/14 06:01:57;;;;;;;21.20;14.10;;;;;;;6.95;64.43;101188.71;117264;1184;23456;-57
2021/12/14 06:04:27;;;;;;;25.80;14.60;;;;;;;6.96;64.17;101185.08;117366;1184;23445;-57
2021/12/14 06:06:55;;;;;;;22.60;14.50;;;;;;;6.98;64.09;101188.41;117158;1188;21925;-58
2021/12/14 06:09:28;;;;;;;20.30;13.00;;;;;;;7.00;64.18;101192.10;117365;1180;21859;-57
2021/12/14 06:12:05;;;;;;;25.00;14.60;;;;;;;7.00;64.21;101194.20;117339;1185;21899;-62
2021/12/14 06:14:52;;;;;;;23.60;15.30;;;;;;;7.01;64.20;101200.85;117356;1185;21985;-59
2021/12/14 06:17:30;;;;;;;22.30;14.60;;;;;;;7.04;64.03;101203.34;117321;1186;21850;-60
2021/12/14 06:20:11;;;;;;;21.50;12.60;;;;;;;7.08;64.13;101205.47;117367;1184;21858;-59
2021/12/14 06:22:40;;;;;;;20.40;12.20;;;;;;;7.11;64.06;101206.59;117351;1184;22714;-60
2021/12/14 06:25:16;;;;;;;19.80;12.30;;;;;;;7.15;64.07;101210.13;117356;1185;23538;-60
2021/12/14 06:27:45;;;;;;;20.70;13.70;;;;;;;7.17;64.11;101209.46;117291;1186;23634;-60
2021/12/14 06:30:22;;;;;;;23.80;14.00;;;;;;;7.21;64.24;101206.91;117366;1185;21856;-62
2021/12/14 06:32:56;;;;;;;19.20;13.30;;;;;;;7.23;64.17;101205.02;117292;1186;23437;-61
2021/12/14 06:35:30;;;;;;;26.10;15.80;;;;;;;7.24;63.98;101201.71;117286;1186;21864;-57
2021/12/14 06:41:08;;;;;;;25.80;14.70;;;;;;;7.23;63.87;101211.65;117406;1185;21856;-57
2021/12/14 06:43:38;;;;;;;22.60;15.10;;;;;;;7.17;63.98;101209.63;117371;1185;23436;-60
2021/12/14 06:46:16;;;;;;;;;;;;;;;7.09;64.02;101206.04;117360;1186;23438;-57
2021/12/14 06:49:12;;;;;;;23.40;14.10;;;;;;;7.03;64.22;101200.34;117343;1186;23867;-60
2021/12/14 06:51:48;;;;;;;21.60;13.80;;;;;;;6.95;64.11;101198.67;117346;1185;22662;-56
2021/12/14 06:54:19;;;;;;;22.30;14.10;;;;;;;6.87;64.28;101193.48;117333;1184;23470;-57
2021/12/14 06:56:55;;;;;;;24.10;12.90;;;;;;;6.86;64.24;101187.69;117317;1186;21857;-57
2021/12/14 06:59:33;;;;;;;22.10;14.00;;;;;;;6.83;64.30;101187.14;117298;1186;23508;-57
2021/12/14 07:02:06;;;;;;;23.80;13.70;;;;;;;6.89;64.35;101188.26;117313;1185;21921;-60
2021/12/14 07:04:36;;;;;;;23.80;14.00;;;;;;;6.95;64.32;101186.95;117492;1185;21859;-61
2021/12/14 07:07:07;;;;;;;19.00;13.60;;;;;;;6.98;64.25;101186.52;117272;1186;22911;-60
2021/12/14 07:09:38;;;;;;;19.90;13.70;;;;;;;7.02;64.15;101183.77;117282;1186;21871;-60
2021/12/14 07:12:14;;;;;;;21.00;13.10;;;;;;;7.03;64.15;101187.10;117306;1186;21985;-60
2021/12/14 07:15:08;;;;;;;20.40;12.90;;;;;;;7.03;64.28;101183.43;117340;1183;22944;-57
2021/12/14 07:17:44;;;;;;;20.60;12.50;;;;;;;7.04;64.05;101183.45;117147;1185;21861;-59
2021/12/14 07:20:13;;;;;;;22.80;12.90;;;;;;;7.05;64.13;101184.50;117332;1186;22912;-61
2021/12/14 07:23:00;;;;;;;20.30;13.20;;;;;;;7.06;64.05;101186.27;117283;1186;21859;-61
2021/12/14 07:25:37;;;;;;;20.00;12.40;;;;;;;7.07;64.13;101186.27;117275;1184;21854;-61
2021/12/14 07:28:07;;;;;;;24.70;13.20;;;;;;;7.09;64.06;101188.21;117124;1188;23564;-59
2021/12/14 07:30:46;;;;;;;19.50;12.50;;;;;;;7.13;64.32;101192.98;117323;1185;23466;-62
2021/12/14 07:33:18;;;;;;;18.00;12.30;;;;;;;7.13;64.31;101195.98;117298;1184;24156;-61
2021/12/14 07:35:55;;;;;;;20.30;12.30;;;;;;;7.14;64.34;101201.40;117281;1186;24153;-60
2021/12/14 07:38:31;;;;;;;20.30;13.40;;;;;;;7.15;64.37;101201.22;117285;1186;22959;-60
2021/12/14 07:41:01;;;;;;;20.10;12.30;;;;;;;7.12;64.29;101200.48;117226;1185;23545;-58
2021/12/14 07:43:36;;;;;;;21.80;13.10;;;;;;;7.13;64.37;101203.65;117362;1186;21862;-60
2021/12/14 07:46:22;;;;;;;20.60;13.00;;;;;;;7.20;64.34;101201.48;117227;1185;22035;-60
2021/12/14 07:48:54;;;;;;;21.00;12.90;;;;;;;7.14;64.35;101208.37;117312;1186;24146;-57
2021/12/14 07:51:24;;;;;;;29.60;13.40;;;;;;;7.16;64.33;101206.83;117308;1186;22940;-57
2021/12/14 07:53:54;;;;;;;24.50;12.70;;;;;;;7.24;64.71;101202.07;117302;1186;22332;-57
2021/12/14 07:56:25;;;;;;;;;;;;;;;7.31;64.47;101201.46;117341;1189;21839;-60
2021/12/14 07:58:54;;;;;;;25.50;12.40;;;;;;;7.33;64.38;101197.48;117312;1186;23488;-60
2021/12/14 08:01:22;;;;;;;24.50;13.20;;;;;;;7.34;64.57;101196.77;117344;1186;21876;-60
2021/12/14 08:04:03;;;;;;;17.90;11.40;;;;;;;7.35;64.30;101200.64;117371;1186;23063;-58
2021/12/14 08:06:52;;;;;;;16.50;11.30;;;;;;;7.36;64.43;101198.74;117324;1185;23619;-57
2021/12/14 08:09:49;;;;;;;21.30;12.30;;;;;;;7.34;64.40;101196.09;117290;1186;23444;-60
2021/12/14 08:12:29;;;;;;;19.60;11.70;;;;;;;7.39;64.49;101198.60;117467;1184;21857;-60
2021/12/14 08:15:09;;;;;;;17.20;11.30;;;;;;;7.48;64.60;101203.97;117292;1185;22011;-60
2021/12/14 08:17:40;;;;;;;18.30;11.80;;;;;;;7.55;64.41;101202.33;117341;1186;21862;-60
2021/12/14 08:20:14;;;;;;;16.40;11.60;;;;;;;7.59;64.58;101206.03;117279;1186;23473;-60
2021/12/14 08:22:55;;;;;;;17.20;11.20;;;;;;;7.66;64.58;101213.98;117103;1184;23553;-60
2021/12/14 08:25:28;;;;;;;;;;;;;;;7.70;64.58;101214.39;117383;1185;23419;-61
2021/12/14 08:28:01;;;;;;;18.90;11.00;;;;;;;7.75;64.74;101213.39;117340;1184;21858;-61
2021/12/14 08:30:30;;;;;;;17.70;11.90;;;;;;;7.78;64.75;101214.84;117317;1183;21867;-60
2021/12/14 08:32:59;;;;;;;19.80;12.30;;;;;;;7.77;64.65;101212.19;117288;1186;23543;-61
2021/12/14 08:35:27;;;;;;;16.60;11.30;;;;;;;7.78;64.81;101211.52;117255;1182;24140;-61
2021/12/14 08:37:59;;;;;;;18.80;11.50;;;;;;;7.85;64.64;101211.08;117335;1185;21851;-61
2021/12/14 08:40:44;;;;;;;17.20;10.10;;;;;;;7.91;64.89;101210.11;117372;1184;23449;-60
2021/12/14 08:43:22;;;;;;;19.50;11.40;;;;;;;7.95;64.61;101203.68;117459;1185;21858;-60
2021/12/14 08:45:54;;;;;;;17.90;11.10;;;;;;;8.00;64.78;101197.11;117122;1187;21891;-60
2021/12/14 08:48:31;;;;;;;19.70;10.40;;;;;;;8.05;64.75;101197.16;117276;1188;23440;-61
2021/12/14 08:51:13;;;;;;;18.40;10.90;;;;;;;8.02;64.65;101196.07;117273;1186;21870;-61
2021/12/14 08:53:48;;;;;;;14.50;9.50;;;;;;;7.97;64.86;101193.05;117283;1186;21860;-61
2021/12/14 08:56:16;;;;;;;15.30;10.30;;;;;;;7.93;64.69;101191.79;117293;1186;24172;-61
2021/12/14 08:58:45;;;;;;;19.40;10.30;;;;;;;7.89;64.62;101182.47;117316;1189;22974;-60
2021/12/14 09:01:18;;;;;;;15.50;9.80;;;;;;;7.81;64.45;101180.97;117364;1185;21845;-60
2021/12/14 09:03:54;;;;;;;16.20;9.30;;;;;;;7.73;64.56;101179.30;117350;1185;22611;-60
2021/12/14 09:06:28;;;;;;;12.90;8.80;;;;;;;7.70;64.54;101177.88;117328;1185;21900;-60
2021/12/14 09:09:00;;;;;;;15.20;9.50;;;;;;;7.67;64.49;101177.16;117294;1186;21870;-60
2021/12/14 09:11:29;;;;;;;13.90;9.00;;;;;;;7.66;64.59;101174.17;117348;1184;21870;-60
2021/12/14 09:13:58;;;;;;;15.80;9.50;;;;;;;7.64;64.57;101171.16;117344;1182;22910;-61
2021/12/14 09:16:28;;;;;;;11.80;8.00;;;;;;;7.62;64.60;101165.20;117277;1172;21864;-60
2021/12/14 09:19:07;;;;;;;16.10;9.90;;;;;;;7.57;64.68;101163.56;117300;1186;21892;-60
2021/12/14 09:21:40;;;;;;;13.20;9.00;;;;;;;7.53;64.67;101164.39;117289;1186;23437;-61
2021/12/14 09:24:11;;;;;;;15.10;9.30;;;;;;;7.52;64.61;101162.27;117279;1188;22889;-60
2021/12/14 09:26:41;;;;;;;14.00;8.90;;;;;;;7.50;64.77;101159.98;117238;1186;21961;-60
2021/12/14 09:29:12;;;;;;;13.20;8.10;;;;;;;7.51;64.81;101154.92;117314;1186;22986;-60
2021/12/14 09:31:40;;;;;;;;;;;;;;;7.51;64.77;101156.33;117291;1188;21844;-60
2021/12/14 09:34:10;;;;;;;32.70;21.30;;;;;;;7.50;64.88;101154.23;117278;1186;22846;-59
2021/12/14 09:36:39;;;;;;;116.40;63.40;;;;;;;7.48;64.80;101151.77;117256;1186;21860;-61
2021/12/14 09:39:20;;;;;;;58.20;38.90;;;;;;;7.47;65.04;101146.67;117325;1186;22632;-61
2021/12/14 09:41:53;;;;;;;30.50;21.40;;;;;;;7.52;64.62;101147.26;117343;1185;23564;-61
2021/12/14 09:44:24;;;;;;;26.00;18.40;;;;;;;7.48;64.92;101136.92;117307;1189;21860;-60
2021/12/14 09:46:55;;;;;;;15.10;10.40;;;;;;;7.51;64.67;101135.37;117331;1185;22769;-60
2021/12/14 09:49:28;;;;;;;15.10;10.80;;;;;;;7.48;64.91;101129.92;117326;1185;21943;-60
2021/12/14 09:52:11;;;;;;;28.30;16.60;;;;;;;7.46;64.95;101129.20;117331;1185;22824;-59
2021/12/14 09:54:39;;;;;;;55.60;25.60;;;;;;;7.45;64.75;101129.36;117368;1184;21863;-59
2021/12/14 09:57:14;;;;;;;58.30;24.80;;;;;;;7.50;64.77;101124.55;117422;1180;21848;-59
2021/12/14 09:59:42;;;;;;;31.70;17.70;;;;;;;7.51;64.70;101122.09;117439;1185;22902;-59
2021/12/14 10:02:23;;;;;;;23.30;13.90;;;;;;;7.47;64.69;101113.84;117322;1184;23538;-60
2021/12/14 10:04:54;;;;;;;18.90;12.40;;;;;;;7.48;64.74;101115.60;117365;1185;21847;-60
2021/12/14 10:07:24;;;;;;;18.70;11.90;;;;;;;7.49;64.79;101121.02;117363;1185;23477;-60
2021/12/14 10:09:54;;;;;;;21.40;14.50;;;;;;;7.51;64.86;101125.06;117351;1186;21859;-61
2021/12/14 10:15:14;;;;;;;14.20;10.50;;;;;;;7.56;64.78;101126.36;117322;1186;21851;-60
2021/12/14 10:17:42;;;;;;;12.10;7.90;;;;;;;7.58;64.73;101131.43;117279;1189;21851;-60
2021/12/14 10:20:16;;;;;;;12.70;9.10;;;;;;;7.58;64.90;101132.48;117475;1185;21869;-61
2021/12/14 10:22:45;;;;;;;11.00;7.50;;;;;;;7.65;64.37;101129.44;117315;1184;23455;-58
2021/12/14 10:25:16;;;;;;;10.40;7.50;;;;;;;7.67;64.37;101130.88;117378;1185;22929;-60
2021/12/14 10:27:46;;;;;;;10.40;8.00;;;;;;;7.58;64.57;101132.13;117355;1185;21892;-60
2021/12/14 10:30:17;;;;;;;;;;;;;;;7.50;64.62;101133.80;117332;1189;21843;-60
2021/12/14 10:32:45;;;;;;;13.40;9.30;;;;;;;7.47;64.65;101136.04;117370;1182;24287;-58
2021/12/14 10:35:21;;;;;;;11.70;8.30;;;;;;;7.44;64.66;101134.25;117303;1185;22087;-60
2021/12/14 10:38:14;;;;;;;12.30;8.40;;;;;;;7.42;64.63;101134.23;117310;1185;22007;-58
2021/12/14 10:43:32;;;;;;;11.30;8.40;;;;;;;7.38;64.36;101132.59;117326;1186;22093;-57
2021/12/14 10:46:10;;;;;;;12.00;9.10;;;;;;;7.36;64.50;101130.64;117233;1186;23563;-58
2021/12/14 10:48:41;;;;;;;13.30;9.70;;;;;;;7.37;64.69;101131.88;117356;1185;21862;-58
2021/12/14 10:51:11;;;;;;;14.60;9.80;;;;;;;7.40;64.76;101127.73;117347;1185;21859;-59
2021/12/14 10:53:42;;;;;;;12.90;10.00;;;;;;;7.37;64.49;101119.31;117354;1185;22911;-58
2021/12/14 10:56:55;;;;;;;16.10;12.40;;;;;;;7.35;64.62;101117.19;117295;1185;23619;-60
2021/12/14 10:59:26;;;;;;;14.60;11.50;;;;;;;7.32;64.79;101117.14;117328;1185;23289;-60
2021/12/14 11:01:53;;;;;;;;;;;;;;;7.28;64.67;101117.64;117466;1185;21829;-60
2021/12/14 11:04:51;;;;;;;13.50;10.00;;;;;;;7.29;64.64;101117.11;117334;1184;23448;-59
2021/12/14 11:07:42;;;;;;;14.50;10.00;;;;;;;7.32;64.75;101119.23;117178;1187;23472;-58
2021/12/14 11:10:35;;;;;;;14.70;10.00;;;;;;;7.35;64.80;101119.28;117272;1186;23437;-58
2021/12/14 11:13:06;;;;;;;13.10;9.50;;;;;;;7.40;64.70;101120.22;117330;1186;23458;-58
2021/12/14 11:15:39;;;;;;;15.20;10.30;;;;;;;7.42;64.94;101116.59;117336;1185;21849;-60
2021/12/14 11:18:13;;;;;;;12.10;9.00;;;;;;;7.43;64.83;101119.91;117328;1186;21861;-60
2021/12/14 11:20:53;;;;;;;13.70;10.20;;;;;;;7.45;64.85;101118.19;117319;1186;22328;-59
2021/12/14 11:23:24;;;;;;;11.70;8.80;;;;;;;7.49;64.71;101115.61;117268;1188;23440;-58
2021/12/14 11:25:52;;;;;;;13.20;9.30;;;;;;;8.18;63.52;101115.64;117272;1186;23558;-60
2021/12/14 11:28:29;;;;;;;16.80;10.90;;;;;;;8.77;62.14;101113.89;117290;1186;23532;-58
2021/12/14 11:31:12;;;;;;;12.10;9.50;;;;;;;8.86;62.00;101111.31;117339;1186;23465;-58
2021/12/14 11:33:45;;;;;;;12.40;9.70;;;;;;;8.89;61.75;101105.39;117316;1185;21992;-58
2021/12/14 11:36:28;;;;;;;14.10;9.60;;;;;;;8.88;61.55;101109.41;117363;1185;22680;-60
2021/12/14 11:39:10;;;;;;;11.60;8.60;;;;;;;8.86;61.45;101109.05;117316;1188;22913;-60
2021/12/14 11:41:47;;;;;;;11.60;8.20;;;;;;;8.83;61.51;101114.98;117283;1186;22919;-61
2021/12/14 11:44:22;;;;;;;11.20;7.70;;;;;;;8.85;61.52;101107.98;117357;1185;22894;-58
2021/12/14 11:47:00;;;;;;;11.50;7.90;;;;;;;8.87;61.30;101109.40;117275;1182;23501;-57
2021/12/14 11:49:49;;;;;;;11.10;8.10;;;;;;;8.89;61.29;101106.42;117333;1186;23546;-57
2021/12/14 11:52:54;;;;;;;11.90;8.30;;;;;;;8.90;61.19;101107.66;117276;1186;23446;-59
2021/12/14 11:55:38;;;;;;;11.40;8.50;;;;;;;8.95;61.20;101109.46;117261;1184;21899;-59
2021/12/14 11:58:08;;;;;;;11.10;8.50;;;;;;;8.95;61.23;101116.11;117497;1185;21870;-57
2021/12/14 12:00:40;;;;;;;11.70;8.40;;;;;;;8.95;61.23;101121.53;117317;1185;23086;-59
2021/12/14 12:03:21;;;;;;;12.10;8.90;;;;;;;8.94;61.19;101131.16;117311;1186;21855;-57
2021/12/14 12:06:08;;;;;;;15.90;8.40;;;;;;;8.94;61.16;101130.81;117256;1185;23088;-59
2021/12/14 12:11:36;;;;;;;12.40;8.80;;;;;;;8.95;61.05;101133.09;117292;1186;21859;-57
2021/12/14 12:14:28;;;;;;;11.50;8.00;;;;;;;8.95;61.06;101133.79;117248;1186;22315;-59
2021/12/14 12:17:11;;;;;;;10.80;7.20;;;;;;;8.78;61.25;101131.38;117433;1186;21912;-59
2021/12/14 12:19:41;;;;;;;9.40;7.20;;;;;;;7.73;63.16;101130.58;117343;1186;21864;-57
2021/12/14 12:22:13;;;;;;;9.50;6.50;;;;;;;7.49;63.57;101132.03;117267;1186;21862;-58
2021/12/14 12:24:47;;;;;;;10.30;7.00;;;;;;;7.38;63.93;101130.50;117308;1186;22988;-58
2021/12/14 12:27:40;;;;;;;11.10;7.30;;;;;;;7.36;64.07;101132.39;117263;1186;21899;-59